Time;durP1;ratioP1;P1;durP2;ratioP2;P2;SDS_P1;SDS_P2;PMS_P1;PMS_P2;Temp;Humidity;BMP_temperature;BMP_pressure;BME280_temperature;BME280_humidity;BME280_pressure;Samples;Min_cycle;Max_cycle;Signal;HPM_P1;HPM_P2
2021/08/06 00:00:01;;;;;;;5.78;2.75;;;;;;;;;;6318736;28;20055;-78
2021/08/06 00:03:02;;;;;;;3.92;2.60;;;;;;;;;;6318731;28;20088;-78
2021/08/06 00:06:03;;;;;;;2.92;2.70;;;;;;;;;;6318128;28;20024;-78
2021/08/06 00:09:04;;;;;;;4.05;2.80;;;14.50;99.90;;;;;;6318852;28;20088;-77
2021/08/06 00:12:05;;;;;;;2.88;2.60;;;14.50;99.90;;;;;;6320465;28;20454;-78
2021/08/06 00:15:06;;;;;;;4.25;2.78;;;14.60;99.90;;;;;;6319833;28;20945;-78
2021/08/06 00:18:07;;;;;;;4.15;2.85;;;14.60;99.90;;;;;;6318073;28;20039;-80
2021/08/06 00:21:07;;;;;;;3.80;2.60;;;14.70;99.90;;;;;;6319950;28;20039;-78
2021/08/06 00:24:08;;;;;;;5.63;2.72;;;14.70;99.90;;;;;;6318626;28;20020;-78
2021/08/06 00:27:08;;;;;;;3.13;2.83;;;14.80;99.90;;;;;;6319407;28;20126;-79
2021/08/06 00:30:09;;;;;;;4.47;2.70;;;14.70;99.90;;;;;;6319329;28;20028;-79
2021/08/06 00:33:10;;;;;;;6.10;3.20;;;14.90;99.90;;;;;;6318491;28;20044;-79
2021/08/06 00:36:11;;;;;;;4.88;2.50;;;14.90;99.90;;;;;;6319422;28;20035;-78
2021/08/06 00:39:11;;;;;;;2.80;2.60;;;14.90;99.90;;;;;;6315934;28;20039;-81
2021/08/06 00:42:12;;;;;;;3.35;2.97;;;15.10;99.90;;;;;;6319147;28;20040;-78
2021/08/06 00:45:12;;;;;;;2.92;2.63;;;15.00;99.90;;;;;;6317288;28;20611;-79
2021/08/06 00:48:13;;;;;;;3.72;2.80;;;15.00;99.90;;;;;;6317629;28;20409;-79
2021/08/06 00:51:14;;;;;;;3.90;2.90;;;15.00;99.90;;;;;;6300853;28;20400;-80
2021/08/06 00:54:16;;;;;;;4.05;2.53;;;15.20;99.90;;;;;;6317433;28;20073;-78
2021/08/06 00:57:16;;;;;;;4.28;2.58;;;15.10;99.90;;;;;;6300903;28;20450;-78
2021/08/06 01:00:17;;;;;;;5.22;3.50;;;15.10;99.90;;;;;;6317366;28;20024;-78
2021/08/06 01:03:23;;;;;;;3.15;2.83;;;15.10;99.90;;;;;;6317727;28;20028;-78
2021/08/06 01:06:41;;;;;;;4.07;2.70;;;15.10;99.90;;;;;;6317064;28;20112;-78
2021/08/06 01:09:46;;;;;;;3.90;2.90;;;15.10;99.90;;;;;;6317642;28;20481;-78
2021/08/06 01:12:53;;;;;;;3.80;2.70;;;15.10;99.90;;;;;;6300673;28;20059;-79
2021/08/06 01:15:54;;;;;;;4.22;2.78;;;15.10;99.90;;;;;;6317277;28;20027;-79
2021/08/06 01:19:08;;;;;;;3.75;2.90;;;15.10;99.90;;;;;;6316654;28;20477;-79
2021/08/06 01:22:22;;;;;;;4.90;3.25;;;15.10;99.90;;;;;;6317290;28;20508;-77
2021/08/06 01:25:29;;;;;;;3.65;2.97;;;15.10;99.90;;;;;;6301421;28;20020;-78
2021/08/06 01:28:31;;;;;;;3.28;2.90;;;15.20;99.90;;;;;;6316497;28;20054;-78
2021/08/06 01:31:32;;;;;;;;;;;15.10;99.90;;;;;;6300502;28;20410;-79
2021/08/06 01:34:33;;;;;;;4.25;2.80;;;;;;;;;;6317126;28;19907;-80
2021/08/06 01:37:34;;;;;;;4.90;3.00;;;15.10;99.90;;;;;;6318486;28;20116;-80
2021/08/06 01:40:41;;;;;;;4.13;2.83;;;15.30;99.90;;;;;;6316926;28;20020;-77
2021/08/06 01:43:57;;;;;;;5.78;3.30;;;15.30;99.90;;;;;;6300695;28;20040;-80
2021/08/06 01:47:02;;;;;;;3.05;2.72;;;15.30;99.90;;;;;;6316769;28;20128;-77
2021/08/06 01:50:06;;;;;;;4.60;3.17;;;15.30;99.90;;;;;;6300752;28;20081;-77
2021/08/06 01:53:08;;;;;;;4.82;2.97;;;15.40;99.90;;;;;;6299523;28;20044;-78
2021/08/06 01:56:11;;;;;;;;;;;15.40;99.90;;;;;;6300948;28;20529;-81
2021/08/06 01:59:11;;;;;;;;;;;15.40;99.90;;;;;;6316554;28;19908;-79
2021/08/06 02:02:12;;;;;;;6.72;3.85;;;15.40;99.90;;;;;;6316857;28;19904;-80
2021/08/06 02:05:12;;;;;;;36.10;20.65;;;15.40;99.90;;;;;;6299261;28;20063;-78
2021/08/06 02:08:13;;;;;;;3.47;3.13;;;15.40;99.90;;;;;;6282954;28;20024;-78
2021/08/06 02:11:17;;;;;;;9.50;6.28;;;15.40;99.90;;;;;;6299183;28;20028;-78
2021/08/06 02:14:18;;;;;;;9.02;4.13;;;15.50;99.90;;;;;;6300428;28;20032;-78
2021/08/06 02:17:20;;;;;;;5.80;3.00;;;15.50;99.90;;;;;;6299471;28;20081;-78
2021/08/06 02:20:21;;;;;;;6.35;3.50;;;15.50;99.90;;;;;;6282949;28;20024;-80
2021/08/06 02:23:25;;;;;;;4.13;3.05;;;15.40;99.90;;;;;;6316338;28;20048;-79
2021/08/06 02:26:25;;;;;;;4.53;3.08;;;15.40;99.90;;;;;;6299637;28;20027;-77
2021/08/06 02:29:27;;;;;;;4.88;3.45;;;15.40;99.90;;;;;;6316193;28;20107;-78
2021/08/06 02:32:27;;;;;;;3.28;2.97;;;15.40;99.90;;;;;;6315890;28;20020;-80
2021/08/06 02:35:28;;;;;;;7.85;3.30;;;15.50;99.90;;;;;;6315999;28;20047;-80
2021/08/06 02:38:29;;;;;;;4.68;2.92;;;15.60;99.90;;;;;;6282510;28;20040;-77
2021/08/06 02:41:29;;;;;;;5.07;3.00;;;15.60;99.90;;;;;;6316398;28;20039;-77
2021/08/06 02:44:30;;;;;;;4.82;3.05;;;15.60;99.90;;;;;;6317051;28;20039;-78
2021/08/06 02:47:30;;;;;;;4.22;3.13;;;15.70;99.90;;;;;;6316126;28;20048;-78
2021/08/06 02:50:31;;;;;;;4.25;3.10;;;15.80;99.90;;;;;;6316077;28;20039;-77
2021/08/06 02:53:31;;;;;;;4.60;3.58;;;14.50;99.90;;;;;;6298819;28;20500;-80
2021/08/06 02:56:32;;;;;;;4.75;3.10;;;15.70;99.90;;;;;;6320923;28;20043;-77
2021/08/06 02:59:33;;;;;;;4.63;3.25;;;15.70;99.90;;;;;;6286439;28;20038;-80
2021/08/06 03:02:33;;;;;;;5.78;3.05;;;16.90;99.90;;;;;;6320277;28;20063;-78
2021/08/06 03:05:34;;;;;;;3.53;3.22;;;;;;;;;;6321697;28;20606;-78
2021/08/06 03:08:35;;;;;;;3.92;3.15;;;;;;;;;;6321591;28;20454;-78
2021/08/06 03:11:36;;;;;;;3.83;2.90;;;;;;;;;;6321279;28;20107;-77
2021/08/06 03:14:39;;;;;;;3.50;3.17;;;;;;;;;;6321835;28;20024;-80
2021/08/06 03:17:41;;;;;;;3.83;2.85;;;;;;;;;;6321471;28;20028;-77
2021/08/06 03:20:42;;;;;;;3.37;2.90;;;;;;;;;;6302898;28;20020;-78
2021/08/06 03:23:43;;;;;;;3.20;2.90;;;;;;;;;;6321280;28;20039;-80
2021/08/06 03:26:44;;;;;;;3.33;2.72;;;15.50;99.90;;;;;;6321283;28;20832;-78
2021/08/06 03:29:44;;;;;;;2.80;2.58;;;15.50;99.90;;;;;;6319712;28;20027;-78
2021/08/06 03:32:45;;;;;;;2.50;2.30;;;15.60;99.90;;;;;;6321188;28;20028;-77
2021/08/06 03:35:45;;;;;;;3.28;2.90;;;15.50;99.90;;;;;;6320123;28;20028;-77
2021/08/06 03:38:46;;;;;;;4.72;2.85;;;15.40;99.90;;;;;;6319219;28;20036;-77
2021/08/06 03:41:46;;;;;;;3.65;2.80;;;15.50;99.90;;;;;;6319754;28;20450;-78
2021/08/06 03:44:47;;;;;;;4.10;3.30;;;15.40;99.90;;;;;;6285789;28;20032;-78
2021/08/06 03:47:48;;;;;;;7.70;3.13;;;15.40;99.90;;;;;;6319475;28;20065;-78
2021/08/06 03:50:48;;;;;;;4.18;3.47;;;15.40;99.90;;;;;;6320727;28;20028;-77
2021/08/06 03:53:49;;;;;;;3.28;2.97;;;15.50;99.90;;;;;;6302066;28;20172;-81
2021/08/06 03:56:49;;;;;;;3.60;3.17;;;15.50;99.90;;;;;;6318987;28;20047;-80
2021/08/06 03:59:50;;;;;;;4.47;2.80;;;15.40;99.90;;;;;;6285658;28;20122;-77
2021/08/06 04:02:50;;;;;;;3.72;2.97;;;15.40;99.90;;;;;;6318752;28;20423;-78
2021/08/06 04:05:51;;;;;;;3.15;2.85;;;15.70;99.90;;;;;;6318067;28;20020;-78
2021/08/06 04:08:52;;;;;;;3.08;2.33;;;15.40;99.90;;;;;;6318333;28;20027;-80
2021/08/06 04:11:52;;;;;;;4.00;2.85;;;15.50;99.90;;;;;;6319041;28;20064;-78
2021/08/06 04:14:53;;;;;;;6.43;3.30;;;15.50;99.90;;;;;;6320159;28;20028;-80
2021/08/06 04:17:54;;;;;;;4.28;3.10;;;15.60;99.90;;;;;;6320233;28;20040;-78
2021/08/06 04:20:54;;;;;;;5.22;3.00;;;15.70;99.90;;;;;;6319797;28;20103;-77
2021/08/06 04:23:55;;;;;;;4.15;3.30;;;15.80;99.90;;;;;;6301396;28;20064;-78
2021/08/06 04:26:55;;;;;;;3.72;3.20;;;16.00;99.90;;;;;;6318543;28;20020;-80
2021/08/06 04:29:56;;;;;;;4.90;3.50;;;16.20;99.90;;;;;;6319835;28;20096;-78
2021/08/06 04:32:57;;;;;;;3.38;3.08;;;16.10;99.90;;;;;;6318180;28;20032;-78
2021/08/06 04:35:58;;;;;;;3.63;3.28;;;16.30;99.90;;;;;;6318067;28;20028;-81
2021/08/06 04:38:58;;;;;;;3.38;3.05;;;16.30;99.90;;;;;;6318057;28;20040;-78
2021/08/06 04:41:59;;;;;;;3.40;3.00;;;16.40;99.90;;;;;;6301022;28;20020;-79
2021/08/06 04:44:59;;;;;;;5.10;3.28;;;16.60;99.90;;;;;;6318961;28;20032;-79
2021/08/06 04:48:03;;;;;;;4.45;2.90;;;16.50;99.90;;;;;;6318118;28;20028;-80
2021/08/06 04:51:04;;;;;;;4.25;3.00;;;16.50;99.90;;;;;;6300885;28;20038;-79
2021/08/06 04:54:05;;;;;;;4.72;3.00;;;16.50;99.90;;;;;;6316931;28;20051;-78
2021/08/06 04:57:05;;;;;;;3.40;2.88;;;16.60;99.90;;;;;;6300146;28;20036;-77
2021/08/06 05:00:07;;;;;;;4.22;3.40;;;16.80;99.90;;;;;;6317216;28;20027;-82
2021/08/06 05:03:08;;;;;;;3.45;2.92;;;17.00;99.90;;;;;;6284202;28;20036;-82
2021/08/06 05:06:08;;;;;;;3.67;2.95;;;16.80;99.90;;;;;;6300386;28;20037;-83
2021/08/06 05:09:09;;;;;;;4.15;3.10;;;17.30;99.90;;;;;;6301033;28;20024;-83
2021/08/06 05:12:13;;;;;;;3.72;2.72;;;16.90;99.90;;;;;;6283558;28;20036;-84
2021/08/06 05:15:14;;;;;;;4.10;3.05;;;16.90;99.90;;;;;;6283647;28;20367;-83
2021/08/06 05:18:14;;;;;;;5.55;2.80;;;16.80;99.90;;;;;;6316604;28;20055;-86
2021/08/06 05:21:15;;;;;;;3.78;2.47;;;;;;;;;;6300125;28;20068;-85
2021/08/06 05:24:17;;;;;;;6.28;2.70;;;;;;;;;;6284022;28;20381;-86
2021/08/06 05:27:17;;;;;;;4.00;2.42;;;17.80;99.90;;;;;;6290235;28;20049;-88
2021/08/06 05:30:22;;;;;;;3.50;2.70;;;;;;;;;;6283254;28;20032;-88
2021/08/06 05:33:27;;;;;;;4.10;2.90;;;17.10;99.90;;;;;;6299069;28;20640;-81
2021/08/06 05:36:28;;;;;;;2.80;2.50;;;17.10;99.90;;;;;;6316047;28;20024;-80
2021/08/06 05:39:29;;;;;;;3.20;2.60;;;17.10;99.90;;;;;;6315806;28;20043;-80
2021/08/06 05:42:29;;;;;;;4.28;2.80;;;17.00;99.90;;;;;;6299192;28;20119;-80
2021/08/06 05:45:30;;;;;;;3.08;2.38;;;17.10;99.90;;;;;;6316546;28;20020;-81
2021/08/06 05:48:31;;;;;;;3.67;2.30;;;16.90;99.90;;;;;;6299324;28;20023;-80
2021/08/06 05:51:31;;;;;;;3.92;2.30;;;16.90;99.90;;;;;;6317179;28;20028;-81
2021/08/06 05:54:32;;;;;;;3.25;2.13;;;16.90;99.90;;;;;;6314488;28;20138;-80
2021/08/06 05:57:33;;;;;;;3.85;2.35;;;;;;;;;;6313453;28;20454;-82
2021/08/06 06:00:33;;;;;;;4.32;2.28;;;17.20;99.90;;;;;;6317404;28;20020;-80
2021/08/06 06:03:34;;;;;;;3.78;2.00;;;17.30;99.90;;;;;;6299247;28;20039;-80
2021/08/06 06:06:34;;;;;;;3.00;2.10;;;17.80;99.90;;;;;;6313330;28;20111;-80
2021/08/06 06:09:35;;;;;;;4.80;2.25;;;17.80;99.90;;;;;;6315182;28;20023;-80
2021/08/06 06:12:36;;;;;;;3.15;2.28;;;18.30;99.90;;;;;;6314139;28;20031;-81
2021/08/06 06:15:36;;;;;;;3.95;2.50;;;18.80;99.90;;;;;;6315802;28;20484;-80
2021/08/06 06:18:37;;;;;;;4.97;3.00;;;18.40;99.90;;;;;;6315924;28;20040;-80
2021/08/06 06:21:37;;;;;;;3.80;2.40;;;18.50;99.90;;;;;;6315825;28;20024;-80
2021/08/06 06:24:38;;;;;;;4.80;2.58;;;18.30;99.90;;;;;;6299401;28;20030;-81
2021/08/06 06:27:55;;;;;;;3.55;2.50;;;18.50;99.90;;;;;;6315868;28;20051;-79
2021/08/06 06:30:56;;;;;;;4.13;2.40;;;18.60;99.90;;;;;;6302313;28;20016;-80
2021/08/06 06:33:56;;;;;;;3.65;2.30;;;18.90;99.90;;;;;;6303450;28;20032;-81
2021/08/06 06:36:57;;;;;;;4.88;2.65;;;19.90;99.90;;;;;;6320798;28;20062;-79
2021/08/06 06:39:57;;;;;;;3.25;2.50;;;20.30;99.90;;;;;;6321759;28;20423;-80
2021/08/06 06:42:58;;;;;;;4.95;2.78;;;20.90;99.90;;;;;;6322079;28;20051;-80
2021/08/06 06:45:59;;;;;;;4.40;2.60;;;20.60;99.90;;;;;;6303425;28;20024;-81
2021/08/06 06:48:59;;;;;;;4.80;2.30;;;20.10;99.90;;;;;;6320558;28;20111;-80
2021/08/06 06:52:00;;;;;;;5.22;2.97;;;20.40;99.90;;;;;;6319603;28;20051;-78
2021/08/06 06:55:01;;;;;;;5.13;2.90;;;20.20;99.90;;;;;;6320158;28;20141;-80
2021/08/06 06:58:01;;;;;;;2.58;2.15;;;19.80;99.90;;;;;;6302199;28;20039;-78
2021/08/06 07:01:02;;;;;;;4.15;2.47;;;19.90;99.90;;;;;;6318375;28;20036;-77
2021/08/06 07:04:02;;;;;;;6.05;2.92;;;19.60;99.90;;;;;;6320510;28;20016;-77
2021/08/06 07:07:03;;;;;;;5.60;3.05;;;19.60;99.90;;;;;;6320047;28;20036;-76
2021/08/06 07:10:05;;;;;;;3.95;2.72;;;19.50;99.90;;;;;;6319810;28;20170;-76
2021/08/06 07:13:05;;;;;;;4.72;2.60;;;19.80;99.90;;;;;;6320246;28;20052;-77
2021/08/06 07:16:06;;;;;;;5.30;2.50;;;20.40;99.90;;;;;;6320034;28;20040;-77
2021/08/06 07:19:07;;;;;;;5.90;2.97;;;20.90;99.90;;;;;;6320189;28;20061;-78
2021/08/06 07:22:08;;;;;;;5.03;2.50;;;20.70;99.90;;;;;;6319682;28;20082;-76
2021/08/06 07:25:12;;;;;;;5.03;3.13;;;20.50;99.90;;;;;;6321198;28;20020;-76
2021/08/06 07:28:12;;;;;;;6.07;2.67;;;20.30;99.90;;;;;;6319516;28;20484;-76
2021/08/06 07:31:13;;;;;;;3.58;2.40;;;20.20;99.90;;;;;;6320929;28;20028;-77
2021/08/06 07:34:14;;;;;;;4.63;2.60;;;20.10;99.90;;;;;;6319472;28;20394;-76
2021/08/06 07:37:14;;;;;;;5.45;2.40;;;19.90;99.90;;;;;;6286460;28;20079;-75
2021/08/06 07:40:15;;;;;;;3.08;2.25;;;19.70;99.90;;;;;;6319229;28;20036;-76
2021/08/06 07:43:16;;;;;;;2.83;2.50;;;19.80;99.90;;;;;;6319621;28;20119;-76
2021/08/06 07:46:17;;;;;;;4.57;2.03;;;21.30;99.90;;;;;;6302962;28;20031;-76
2021/08/06 07:49:17;;;;;;;3.15;2.40;;;21.20;99.90;;;;;;6318962;28;20035;-76
2021/08/06 07:52:18;;;;;;;4.78;2.47;;;20.70;99.90;;;;;;6320577;28;20096;-76
2021/08/06 07:55:18;;;;;;;5.15;2.55;;;20.80;99.90;;;;;;6320507;28;20119;-76
2021/08/06 07:58:19;;;;;;;4.25;2.30;;;21.10;99.90;;;;;;6318750;28;20458;-77
2021/08/06 08:01:20;;;;;;;2.50;2.17;;;21.00;99.90;;;;;;6318711;28;20028;-76
2021/08/06 08:04:21;;;;;;;5.28;2.67;;;20.40;99.90;;;;;;6320110;28;20053;-76
2021/08/06 08:07:22;;;;;;;4.93;2.53;;;;;;;;;;6320181;28;20020;-76
2021/08/06 08:10:23;;;;;;;4.32;2.30;;;;;;;;;;6320342;28;20039;-76
2021/08/06 08:13:24;;;;;;;3.92;2.70;;;19.90;99.90;;;;;;6318935;28;20103;-77
2021/08/06 08:16:25;;;;;;;3.33;2.50;;;19.70;99.90;;;;;;6301974;28;20466;-76
2021/08/06 08:19:26;;;;;;;4.63;2.40;;;19.70;99.90;;;;;;6318175;28;20553;-76
2021/08/06 08:22:26;;;;;;;5.20;2.50;;;19.50;99.90;;;;;;6318246;28;20361;-77
2021/08/06 08:25:27;;;;;;;5.63;2.55;;;19.60;99.90;;;;;;6320141;28;20428;-77
2021/08/06 08:28:28;;;;;;;3.15;2.20;;;19.40;99.90;;;;;;6319664;28;20104;-77
2021/08/06 08:31:28;;;;;;;4.05;2.50;;;20.40;99.90;;;;;;6318272;28;20377;-77
2021/08/06 08:34:29;;;;;;;4.03;2.50;;;21.30;99.90;;;;;;6319584;28;20035;-76
2021/08/06 08:37:29;;;;;;;3.22;2.42;;;21.40;99.90;;;;;;6319141;28;20032;-77
2021/08/06 08:40:30;;;;;;;5.30;2.33;;;21.30;99.90;;;;;;6319239;28;20038;-77
2021/08/06 08:43:31;;;;;;;4.57;2.58;;;22.10;99.90;;;;;;6318958;28;20031;-77
2021/08/06 08:46:31;;;;;;;5.50;2.60;;;22.60;97.80;;;;;;6319372;28;20393;-77
2021/08/06 08:49:33;;;;;;;5.53;2.50;;;22.40;98.80;;;;;;6300652;28;20107;-78
2021/08/06 08:52:34;;;;;;;;;;;22.00;97.40;;;;;;6317733;28;20697;-77
2021/08/06 08:55:37;;;;;;;5.68;2.50;;;21.50;99.00;;;;;;6319475;28;19912;-79
2021/08/06 08:58:38;;;;;;;4.03;2.42;;;21.30;99.90;;;;;;6301322;28;20035;-81
2021/08/06 09:01:39;;;;;;;5.07;2.80;;;21.20;99.90;;;;;;6300523;28;20032;-81
2021/08/06 09:04:40;;;;;;;8.50;3.30;;;21.10;99.90;;;;;;6294995;28;20040;-81
2021/08/06 09:07:40;;;;;;;6.57;2.95;;;20.70;99.90;;;;;;6317171;28;20028;-80
2021/08/06 09:10:41;;;;;;;7.22;3.00;;;20.50;99.90;;;;;;6317062;28;20047;-80
2021/08/06 09:13:42;;;;;;;4.53;2.55;;;20.10;99.90;;;;;;6283528;28;20035;-81
2021/08/06 09:17:00;;;;;;;3.30;2.55;;;20.10;99.90;;;;;;6300334;28;20020;-80
2021/08/06 09:20:02;;;;;;;6.13;2.90;;;20.10;99.90;;;;;;6300521;28;20114;-79
2021/08/06 09:23:03;;;;;;;3.30;2.40;;;20.00;99.90;;;;;;6300312;28;20346;-82
2021/08/06 09:26:04;;;;;;;4.75;2.50;;;20.00;99.90;;;;;;6283783;28;20028;-80
2021/08/06 09:29:06;;;;;;;4.00;2.72;;;20.00;99.90;;;;;;6296329;28;20423;-86
2021/08/06 09:32:07;;;;;;;10.82;2.75;;;19.90;99.90;;;;;;6300244;28;20024;-85
2021/08/06 09:35:08;;;;;;;7.55;2.92;;;19.90;99.90;;;;;;6283362;28;20385;-82
2021/08/06 09:38:18;;;;;;;5.28;2.45;;;21.40;99.90;;;;;;6299964;28;20036;-80
2021/08/06 09:41:38;;;;;;;7.80;3.10;;;21.60;99.90;;;;;;6299685;28;20028;-80
2021/08/06 09:44:39;;;;;;;3.42;2.50;;;;;;;;;;6300036;28;20409;-81
2021/08/06 09:47:40;;;;;;;7.25;2.85;;;23.20;99.90;;;;;;6317560;28;20085;-82
2021/08/06 09:50:44;;;;;;;5.65;2.67;;;24.30;97.10;;;;;;6283446;28;20024;-84
2021/08/06 09:53:49;;;;;;;4.97;2.67;;;25.00;94.10;;;;;;6299758;28;20048;-85
2021/08/06 09:57:06;;;;;;;3.50;2.30;;;24.40;94.20;;;;;;6300494;28;20032;-85
2021/08/06 10:00:07;;;;;;;3.78;2.40;;;23.30;94.40;;;;;;6277921;28;20036;-84
2021/08/06 10:03:08;;;;;;;3.50;2.40;;;23.00;96.20;;;;;;6282730;28;20540;-85
2021/08/06 10:06:11;;;;;;;2.30;2.10;;;22.90;96.00;;;;;;6285752;28;20093;-86
2021/08/06 10:09:11;;;;;;;6.88;2.65;;;23.00;96.40;;;;;;6287996;28;20020;-86
2021/08/06 10:12:12;;;;;;;4.07;2.60;;;23.00;97.00;;;;;;6286411;28;20052;-85
2021/08/06 10:15:13;;;;;;;5.05;2.45;;;23.20;95.80;;;;;;6287015;28;20016;-87
2021/08/06 10:18:13;;;;;;;7.20;2.55;;;23.80;95.10;;;;;;6304190;28;20382;-86
2021/08/06 10:21:14;;;;;;;5.25;2.50;;;23.90;93.80;;;;;;6287661;28;20024;-86
2021/08/06 10:24:15;;;;;;;3.47;2.25;;;23.40;93.70;;;;;;6286919;28;20035;-85
2021/08/06 10:27:19;;;;;;;4.85;2.20;;;23.70;94.60;;;;;;6303236;28;20105;-85
2021/08/06 10:30:24;;;;;;;4.82;2.63;;;23.10;93.40;;;;;;6304368;28;20035;-84
2021/08/06 10:33:27;;;;;;;4.22;2.80;;;22.50;94.50;;;;;;6287516;28;20032;-85
2021/08/06 10:36:37;;;;;;;5.35;2.28;;;22.30;95.40;;;;;;6287619;28;20020;-85
2021/08/06 10:39:37;;;;;;;4.10;2.30;;;21.50;96.80;;;;;;6320518;28;20481;-85
2021/08/06 10:42:38;;;;;;;6.22;2.28;;;21.20;97.30;;;;;;6320843;28;20024;-84
2021/08/06 10:45:48;;;;;;;7.15;3.20;;;20.90;98.10;;;;;;6286176;28;20074;-84
2021/08/06 10:48:53;;;;;;;4.10;2.40;;;21.30;97.80;;;;;;6319536;28;20036;-85
2021/08/06 10:52:18;;;;;;;4.88;2.88;;;21.10;97.50;;;;;;6286651;28;20043;-85
2021/08/06 10:55:20;;;;;;;4.03;2.20;;;21.50;96.30;;;;;;6287595;28;20032;-85
2021/08/06 10:58:52;;;;;;;4.47;2.73;;;21.80;98.50;;;;;;6303026;28;21116;-85
2021/08/06 11:01:55;;;;;;;;;;;22.00;96.90;;;;;;6320909;28;20509;-84
2021/08/06 11:04:56;;;;;;;4.40;2.20;;;21.90;96.00;;;;;;6302599;28;19904;-85
2021/08/06 11:08:00;;;;;;;4.93;2.17;;;21.70;96.10;;;;;;6286420;28;20062;-85
2021/08/06 11:11:01;;;;;;;5.07;2.13;;;21.60;96.50;;;;;;6287129;28;20024;-85
2021/08/06 11:14:01;;;;;;;5.07;2.10;;;21.40;96.00;;;;;;6286423;28;20381;-84
2021/08/06 11:17:15;;;;;;;6.30;2.55;;;21.10;96.00;;;;;;6285872;28;20024;-85
2021/08/06 11:20:17;;;;;;;5.85;2.67;;;21.00;96.80;;;;;;6319661;28;20073;-86
2021/08/06 11:23:19;;;;;;;3.65;2.45;;;21.10;96.20;;;;;;6286397;28;20054;-84
2021/08/06 11:26:19;;;;;;;3.27;2.20;;;21.10;97.10;;;;;;6286830;28;20454;-84
2021/08/06 11:29:20;;;;;;;3.78;2.58;;;21.20;99.90;;;;;;6285884;28;20044;-85
2021/08/06 11:32:20;;;;;;;4.60;3.20;;;21.90;97.30;;;;;;6302900;28;20024;-85
2021/08/06 11:35:25;;;;;;;3.38;2.00;;;21.50;99.90;;;;;;6302500;28;20063;-84
2021/08/06 11:38:26;;;;;;;3.33;1.88;;;;;;;;;;6302591;28;20311;-85
2021/08/06 11:41:27;;;;;;;4.93;2.90;;;;;;;;;;6295000;28;20089;-85
2021/08/06 11:44:27;;;;;;;3.25;2.10;;;21.90;99.90;;;;;;6302228;28;20476;-84
2021/08/06 11:47:38;;;;;;;6.55;2.80;;;22.00;96.80;;;;;;6285820;28;20031;-85
2021/08/06 11:50:44;;;;;;;4.22;2.03;;;22.60;97.20;;;;;;6319327;28;20023;-85
2021/08/06 11:53:45;;;;;;;3.95;2.40;;;23.20;94.10;;;;;;6320029;28;20545;-84
2021/08/06 11:56:55;;;;;;;3.50;2.05;;;23.00;93.50;;;;;;6302100;28;20038;-87
2021/08/06 12:00:14;;;;;;;3.45;2.47;;;23.60;99.90;;;;;;6302045;28;20351;-86
2021/08/06 12:03:15;;;;;;;4.15;2.10;;;24.20;99.60;;;;;;6319480;28;20032;-85
2021/08/06 12:06:16;;;;;;;3.10;2.20;;;24.50;92.90;;;;;;6284718;28;20478;-85
2021/08/06 12:09:17;;;;;;;3.90;2.47;;;24.50;90.90;;;;;;6302113;28;20508;-86
2021/08/06 12:12:28;;;;;;;4.38;2.35;;;24.70;93.40;;;;;;6301817;28;20040;-85
2021/08/06 12:15:30;;;;;;;3.90;2.70;;;24.50;92.00;;;;;;6285328;28;20028;-86
2021/08/06 12:18:31;;;;;;;3.58;2.10;;;24.40;92.40;;;;;;6284681;28;20050;-85
2021/08/06 12:21:33;;;;;;;7.13;2.77;;;24.50;91.70;;;;;;6301708;28;20537;-86
2021/08/06 12:24:34;;;;;;;4.10;2.20;;;24.40;90.00;;;;;;6302191;28;20032;-84
2021/08/06 12:27:35;;;;;;;4.70;2.50;;;23.90;90.80;;;;;;6300844;28;20043;-84
2021/08/06 12:30:35;;;;;;;7.50;3.55;;;24.00;90.20;;;;;;6300889;28;20055;-84
2021/08/06 12:33:36;;;;;;;5.03;2.40;;;23.50;90.50;;;;;;6284836;28;20027;-85
2021/08/06 12:36:39;;;;;;;4.93;2.43;;;23.60;91.00;;;;;;6301112;28;20390;-86
2021/08/06 12:39:46;;;;;;;5.18;2.33;;;23.80;90.40;;;;;;6284489;28;20489;-87
2021/08/06 12:42:47;;;;;;;3.63;2.20;;;24.10;90.10;;;;;;6319127;28;20032;-84
2021/08/06 12:46:11;;;;;;;4.17;2.20;;;24.20;90.10;;;;;;6301129;28;20469;-84
2021/08/06 12:49:12;;;;;;;5.47;2.50;;;24.10;90.20;;;;;;6300756;28;20016;-84
2021/08/06 12:52:17;;;;;;;6.23;2.83;;;24.10;90.00;;;;;;6284105;28;20075;-84
2021/08/06 12:55:20;;;;;;;3.47;2.30;;;24.20;88.40;;;;;;6301304;28;20024;-86
2021/08/06 12:58:21;;;;;;;4.70;2.85;;;24.20;87.20;;;;;;6284309;28;20036;-86
2021/08/06 13:01:28;;;;;;;6.70;2.23;;;24.00;88.10;;;;;;6284743;28;20446;-84
2021/08/06 13:04:32;;;;;;;4.82;2.45;;;23.80;89.90;;;;;;6300317;28;20111;-84
2021/08/06 13:07:33;;;;;;;5.40;3.10;;;23.80;88.90;;;;;;6289594;28;20012;-85
2021/08/06 13:10:34;;;;;;;6.53;2.83;;;;;;;;;;6317224;28;20032;-86
2021/08/06 13:13:44;;;;;;;3.45;2.28;;;23.30;93.00;;;;;;6299767;28;20069;-84
2021/08/06 13:16:47;;;;;;;3.50;2.35;;;23.60;94.00;;;;;;6300980;28;20035;-86
2021/08/06 13:19:48;;;;;;;6.38;2.70;;;24.10;92.80;;;;;;6283357;28;20051;-86
2021/08/06 13:22:48;;;;;;;4.80;2.38;;;22.90;94.90;;;;;;6284060;28;20390;-83
2021/08/06 13:25:50;;;;;;;3.22;2.30;;;;;;;;;;6300255;28;20098;-85
2021/08/06 13:28:50;;;;;;;6.10;2.80;;;23.10;94.20;;;;;;6299727;28;20477;-84
2021/08/06 13:31:51;;;;;;;6.47;2.60;;;23.00;90.80;;;;;;6283005;28;20020;-84
2021/08/06 13:34:51;;;;;;;2.03;1.83;;;22.90;90.20;;;;;;6283113;28;20032;-84
2021/08/06 13:37:52;;;;;;;3.83;2.40;;;22.60;89.80;;;;;;6282661;28;20089;-84
2021/08/06 13:40:53;;;;;;;3.03;2.13;;;22.70;90.90;;;;;;6299142;28;20066;-85
2021/08/06 13:43:53;;;;;;;5.15;2.30;;;22.80;91.50;;;;;;6280205;28;20064;-84
2021/08/06 13:46:54;;;;;;;5.57;2.47;;;22.50;91.00;;;;;;6299013;28;20020;-83
2021/08/06 13:49:55;;;;;;;6.13;2.72;;;;;;;;;;6284675;28;20028;-89
2021/08/06 13:53:04;;;;;;;7.27;2.50;;;22.30;90.50;;;;;;6300310;28;20067;-89
2021/08/06 13:56:05;;;;;;;3.65;2.40;;;22.50;99.50;;;;;;6295481;28;20036;-92
2021/08/06 13:59:23;;;;;;;5.20;2.70;;;22.30;93.90;;;;;;6283458;28;20382;-90
2021/08/06 14:02:24;;;;;;;3.85;2.30;;;;;;;;;;6284219;28;20075;-87
2021/08/06 14:05:25;;;;;;;3.80;2.27;;;23.70;91.50;;;;;;6316468;28;20020;-84
2021/08/06 14:08:26;;;;;;;5.72;2.50;;;24.10;91.20;;;;;;6283050;28;20063;-83
2021/08/06 14:11:26;;;;;;;4.43;2.50;;;24.10;90.10;;;;;;6299550;28;20028;-85
2021/08/06 14:14:27;;;;;;;5.43;2.65;;;24.30;90.50;;;;;;6282764;28;20028;-87
2021/08/06 14:17:27;;;;;;;9.83;2.90;;;23.90;90.00;;;;;;6283206;28;20481;-87
2021/08/06 14:20:28;;;;;;;5.63;2.60;;;23.80;90.70;;;;;;6282584;28;20503;-84
2021/08/06 14:23:29;;;;;;;4.45;2.30;;;23.90;89.40;;;;;;6316494;28;20107;-86
2021/08/06 14:26:30;;;;;;;7.17;2.47;;;24.10;91.20;;;;;;6298814;28;20031;-84
2021/08/06 14:29:31;;;;;;;7.13;2.30;;;;;;;;;;6299079;28;20043;-84
2021/08/06 14:32:31;;;;;;;9.03;2.77;;;24.30;86.20;;;;;;6316527;28;20052;-85
2021/08/06 14:35:32;;;;;;;15.57;3.33;;;23.50;88.50;;;;;;6280635;28;20028;-88
2021/08/06 14:38:32;;;;;;;6.17;2.50;;;23.80;89.00;;;;;;6282170;28;20032;-86
2021/08/06 14:41:36;;;;;;;15.93;2.83;;;23.60;90.40;;;;;;6298104;28;20016;-85
2021/08/06 14:44:37;;;;;;;7.97;1.95;;;23.60;89.90;;;;;;6283046;28;20112;-85
2021/08/06 14:47:38;;;;;;;7.40;2.70;;;23.90;90.90;;;;;;6282087;28;20101;-85
2021/08/06 14:50:38;;;;;;;6.13;2.60;;;24.00;90.80;;;;;;6299901;28;20059;-87
2021/08/06 14:53:39;;;;;;;3.73;2.30;;;23.90;89.70;;;;;;6320377;28;20052;-83
2021/08/06 14:56:40;;;;;;;4.53;2.90;;;24.00;90.00;;;;;;6304042;28;20032;-85
2021/08/06 14:59:40;;;;;;;6.30;2.50;;;24.20;90.20;;;;;;6286674;28;20059;-82
2021/08/06 15:02:41;;;;;;;4.85;2.03;;;24.30;88.90;;;;;;6303210;28;20070;-86
2021/08/06 15:05:41;;;;;;;6.03;2.50;;;24.20;87.00;;;;;;6286314;28;20028;-84
2021/08/06 15:08:42;;;;;;;4.50;2.50;;;24.10;88.00;;;;;;6286731;28;20071;-83
2021/08/06 15:11:42;;;;;;;3.03;2.30;;;23.90;87.20;;;;;;6287080;28;20024;-86
2021/08/06 15:14:44;;;;;;;4.37;2.20;;;23.90;89.90;;;;;;6286735;28;20036;-82
2021/08/06 15:17:45;;;;;;;8.77;2.78;;;24.00;90.10;;;;;;6287099;28;20035;-84
2021/08/06 15:20:46;;;;;;;4.55;2.30;;;23.90;88.90;;;;;;6302964;28;20469;-84
2021/08/06 15:23:46;;;;;;;15.40;2.93;;;23.60;86.80;;;;;;6303230;28;20595;-84
2021/08/06 15:26:47;;;;;;;16.52;3.22;;;23.60;87.60;;;;;;6286424;28;20020;-83
2021/08/06 15:29:48;;;;;;;7.72;2.40;;;23.30;90.90;;;;;;6286066;28;20035;-84
2021/08/06 15:32:48;;;;;;;6.50;2.78;;;23.50;89.20;;;;;;6303019;28;20139;-83
2021/08/06 15:35:49;;;;;;;4.70;2.10;;;23.60;90.30;;;;;;6302880;28;20107;-86
2021/08/06 15:38:51;;;;;;;4.70;2.47;;;23.70;90.10;;;;;;6302717;28;20389;-83
2021/08/06 15:41:52;;;;;;;6.75;2.30;;;23.80;90.20;;;;;;6319534;28;20017;-84
2021/08/06 15:44:53;;;;;;;10.97;3.13;;;23.90;90.10;;;;;;6285927;28;20031;-86
2021/08/06 15:47:53;;;;;;;11.05;3.63;;;23.80;90.30;;;;;;6286170;28;20104;-82
2021/08/06 15:50:54;;;;;;;5.95;2.40;;;23.70;90.40;;;;;;6302455;28;20032;-84
2021/08/06 15:53:54;;;;;;;6.90;3.03;;;23.80;89.60;;;;;;6318558;28;20083;-82
2021/08/06 15:56:55;;;;;;;9.18;2.33;;;24.00;89.80;;;;;;6319253;28;20475;-82